createdAt,value
2023-05-17T00:00:35.108Z,15.15
2023-05-17T00:03:02.217Z,15.05
2023-05-17T00:05:29.590Z,14.95
2023-05-17T00:07:56.832Z,14.97
2023-05-17T00:10:23.924Z,14.82
2023-05-17T00:12:51.090Z,14.76
2023-05-17T00:15:18.226Z,14.77
2023-05-17T00:17:45.306Z,14.87
2023-05-17T00:20:12.736Z,14.84
2023-05-17T00:22:41.114Z,14.85
2023-05-17T00:25:08.415Z,14.81
2023-05-17T00:27:35.450Z,14.73
2023-05-17T00:30:02.652Z,14.69
2023-05-17T00:32:32.435Z,14.63
2023-05-17T00:34:59.574Z,14.72
2023-05-17T00:37:26.683Z,14.69
2023-05-17T00:39:54.248Z,14.29
2023-05-17T00:42:21.289Z,14.28
2023-05-17T00:44:48.752Z,14.53
2023-05-17T00:47:16.040Z,14.59
2023-05-17T00:49:43.352Z,14.56
2023-05-17T00:52:10.536Z,14.55
2023-05-17T00:54:37.611Z,14.49
2023-05-17T00:57:05.934Z,14.51
2023-05-17T00:59:34.848Z,14.31
2023-05-17T01:02:04.137Z,14.17
2023-05-17T01:04:31.532Z,14.41
2023-05-17T01:07:00.479Z,14.42
2023-05-17T01:09:27.613Z,14.40
2023-05-17T01:12:06.523Z,14.45
2023-05-17T01:15:11.259Z,14.47
2023-05-17T01:18:00.344Z,14.30
2023-05-17T01:20:36.502Z,14.35
2023-05-17T01:23:40.605Z,14.30
2023-05-17T01:26:19.207Z,14.26
2023-05-17T01:28:49.774Z,14.08
2023-05-17T01:31:18.727Z,14.19
2023-05-17T01:33:46.660Z,14.13
2023-05-17T01:36:13.778Z,14.17
2023-05-17T01:38:41.951Z,14.15
2023-05-17T01:41:42.548Z,14.20
2023-05-17T01:44:33.204Z,14.15
2023-05-17T01:47:12.938Z,14.06
2023-05-17T01:49:41.918Z,13.73
2023-05-17T01:52:17.029Z,14.09
2023-05-17T01:54:47.549Z,14.07
2023-05-17T01:57:15.241Z,13.68
2023-05-17T01:59:44.354Z,14.03
2023-05-17T02:02:11.444Z,14.03
2023-05-17T02:04:38.534Z,14.03
2023-05-17T02:07:05.693Z,14.03
2023-05-17T02:09:32.748Z,14.04
2023-05-17T02:11:59.878Z,14.01
2023-05-17T02:14:27.078Z,14.00
2023-05-17T02:16:54.487Z,13.99
2023-05-17T02:19:22.127Z,13.90
2023-05-17T02:21:49.588Z,13.97
2023-05-17T02:24:17.985Z,13.95
2023-05-17T02:26:45.992Z,13.86
2023-05-17T02:29:13.189Z,13.96
2023-05-17T02:31:40.601Z,13.95
2023-05-17T02:34:07.655Z,14.02
2023-05-17T02:36:35.078Z,14.05
2023-05-17T02:39:02.192Z,14.01
2023-05-17T02:41:29.277Z,14.12
2023-05-17T02:43:58.341Z,13.87
2023-05-17T02:46:27.304Z,14.06
2023-05-17T02:48:54.477Z,13.90
2023-05-17T02:51:21.724Z,14.07
2023-05-17T02:53:48.967Z,14.11
2023-05-17T02:56:16.054Z,14.17
2023-05-17T02:58:44.881Z,13.86
2023-05-17T03:01:12.096Z,14.26
2023-05-17T03:03:39.537Z,14.32
2023-05-17T03:06:07.180Z,14.03
2023-05-17T03:08:35.151Z,14.39
2023-05-17T03:11:04.041Z,14.43
2023-05-17T03:13:31.657Z,14.47
2023-05-17T03:15:58.758Z,14.50
2023-05-17T03:18:28.802Z,14.60
2023-05-17T03:20:56.012Z,14.59
2023-05-17T03:23:23.444Z,14.58
2023-05-17T03:25:59.186Z,14.73
2023-05-17T03:28:28.147Z,14.78
2023-05-17T03:30:58.111Z,14.86
2023-05-17T03:33:27.769Z,14.88
2023-05-17T03:35:54.883Z,14.98
2023-05-17T03:38:22.006Z,15.02
2023-05-17T03:40:52.042Z,15.11
2023-05-17T03:43:19.461Z,15.15
2023-05-17T03:45:47.722Z,15.04
2023-05-17T03:48:17.649Z,15.23
2023-05-17T03:50:45.250Z,15.23
2023-05-17T03:53:12.943Z,15.36
2023-05-17T03:55:40.123Z,15.40
2023-05-17T03:58:10.371Z,15.50
2023-05-17T04:00:37.603Z,15.51
2023-05-17T04:03:13.031Z,15.67
2023-05-17T04:05:41.561Z,15.72
2023-05-17T04:08:09.583Z,15.89
2023-05-17T04:10:36.668Z,16.03
2023-05-17T04:13:04.705Z,16.19
2023-05-17T04:15:32.195Z,16.32
2023-05-17T04:18:03.373Z,16.49
2023-05-17T04:20:31.137Z,16.74
2023-05-17T04:22:58.360Z,16.89
2023-05-17T04:25:29.124Z,16.90
2023-05-17T04:27:56.910Z,17.03
2023-05-17T04:30:24.349Z,17.08
2023-05-17T04:32:51.626Z,17.20
2023-05-17T04:35:19.172Z,17.18
2023-05-17T04:37:49.686Z,17.36
2023-05-17T04:40:21.417Z,17.47
2023-05-17T04:42:49.571Z,17.53
2023-05-17T04:45:17.960Z,17.19
2023-05-17T04:47:45.836Z,17.77
2023-05-17T04:50:15.344Z,17.83
2023-05-17T04:52:42.717Z,17.92
2023-05-17T04:55:10.506Z,18.00
2023-05-17T04:57:38.651Z,18.04
2023-05-17T05:00:08.959Z,18.05
2023-05-17T05:02:38.266Z,18.06
2023-05-17T05:05:07.061Z,18.24
2023-05-17T05:07:35.748Z,18.24
2023-05-17T05:10:04.326Z,18.46
2023-05-17T05:12:32.096Z,18.57
2023-05-17T05:15:01.204Z,18.68
2023-05-17T05:17:33.945Z,18.74
2023-05-17T05:20:01.305Z,18.88
2023-05-17T05:22:28.619Z,18.99
2023-05-17T05:24:56.782Z,19.10
2023-05-17T05:27:23.891Z,19.22
2023-05-17T05:29:51.558Z,19.32
2023-05-17T05:32:19.159Z,19.50
2023-05-17T05:34:49.261Z,19.66
2023-05-17T05:37:18.591Z,19.72
2023-05-17T05:39:46.773Z,19.94
2023-05-17T05:42:13.937Z,19.86
2023-05-17T05:44:40.990Z,20.20
2023-05-17T05:47:09.319Z,20.26
2023-05-17T05:49:36.766Z,20.32
2023-05-17T05:52:04.037Z,20.51
2023-05-17T05:54:34.646Z,20.63
2023-05-17T05:57:01.711Z,20.67
2023-05-17T05:59:28.861Z,20.79
2023-05-17T06:01:58.738Z,20.79
2023-05-17T06:04:36.380Z,20.92
2023-05-17T06:07:11.607Z,21.06
2023-05-17T06:09:38.676Z,21.11
2023-05-17T06:12:05.880Z,21.23
2023-05-17T06:14:32.969Z,21.30
2023-05-17T06:17:00.092Z,21.40
2023-05-17T06:19:27.265Z,21.47
2023-05-17T06:21:54.417Z,21.39
2023-05-17T06:24:21.580Z,21.76
2023-05-17T06:26:48.861Z,22.00
2023-05-17T06:29:15.940Z,22.05
2023-05-17T06:31:43.153Z,22.55
2023-05-17T06:34:12.869Z,22.68
2023-05-17T06:36:40.737Z,22.81
2023-05-17T06:39:08.085Z,23.08
2023-05-17T06:41:35.165Z,23.23
2023-05-17T06:44:02.170Z,23.25
2023-05-17T06:46:29.300Z,23.29
2023-05-17T06:48:56.475Z,23.20
2023-05-17T06:51:23.906Z,23.19
2023-05-17T06:53:50.999Z,23.24
2023-05-17T06:56:18.114Z,23.27
2023-05-17T06:58:45.133Z,23.29
2023-05-17T07:01:13.272Z,23.34
2023-05-17T07:03:40.472Z,23.37
2023-05-17T07:06:07.910Z,23.37
2023-05-17T07:08:37.784Z,23.25
2023-05-17T07:11:05.410Z,23.32
2023-05-17T07:13:33.280Z,23.33
2023-05-17T07:16:00.828Z,23.35
2023-05-17T07:18:28.029Z,23.40
2023-05-17T07:20:55.172Z,23.44
2023-05-17T07:23:22.500Z,23.44
2023-05-17T07:25:49.638Z,23.40
2023-05-17T07:28:17.124Z,23.27
2023-05-17T07:30:44.259Z,23.44
2023-05-17T07:33:11.632Z,23.47
2023-05-17T07:35:41.704Z,23.53
2023-05-17T07:38:10.621Z,23.49
2023-05-17T07:40:37.795Z,23.51
2023-05-17T07:43:04.852Z,23.63
2023-05-17T07:45:32.045Z,23.65
2023-05-17T07:47:59.542Z,23.61
2023-05-17T07:50:26.782Z,23.68
2023-05-17T07:52:54.044Z,23.69
2023-05-17T07:55:21.487Z,23.78
2023-05-17T07:57:48.586Z,23.86
2023-05-17T08:00:19.436Z,23.92
2023-05-17T08:02:46.771Z,23.87
2023-05-17T08:05:13.944Z,23.96
2023-05-17T08:07:41.143Z,23.96
2023-05-17T08:10:08.559Z,24.04
2023-05-17T08:12:35.640Z,24.18
2023-05-17T08:15:02.910Z,24.21
2023-05-17T08:17:33.507Z,24.27
2023-05-17T08:20:00.670Z,24.36
2023-05-17T08:22:27.925Z,24.43
2023-05-17T08:24:54.965Z,24.39
2023-05-17T08:27:22.056Z,24.42
2023-05-17T08:29:49.152Z,24.43
2023-05-17T08:32:16.166Z,24.26
2023-05-17T08:34:43.263Z,24.51
2023-05-17T08:37:10.409Z,24.32
2023-05-17T08:39:37.496Z,24.52
2023-05-17T08:42:08.670Z,24.53
2023-05-17T08:44:36.635Z,24.53
2023-05-17T08:47:04.271Z,24.53
2023-05-17T08:49:34.708Z,24.35
2023-05-17T08:52:09.877Z,24.67
2023-05-17T08:54:37.743Z,24.76
2023-05-17T08:57:06.908Z,24.81
2023-05-17T08:59:35.310Z,24.89
2023-05-17T09:02:03.067Z,24.96
2023-05-17T09:04:33.427Z,24.94
2023-05-17T09:07:00.619Z,24.87
2023-05-17T09:09:28.150Z,24.99
2023-05-17T09:11:55.358Z,25.02
2023-05-17T09:14:22.525Z,25.08
2023-05-17T09:16:57.487Z,25.18
2023-05-17T09:19:24.760Z,25.17
2023-05-17T09:21:52.259Z,25.21
2023-05-17T09:24:28.525Z,25.25
2023-05-17T09:27:02.307Z,25.14
2023-05-17T09:29:34.233Z,25.05
2023-05-17T09:32:18.509Z,25.21
2023-05-17T09:34:50.166Z,25.21
2023-05-17T09:37:19.116Z,25.21
2023-05-17T09:39:48.044Z,25.31
2023-05-17T09:42:17.036Z,25.45
2023-05-17T09:44:57.788Z,25.61
2023-05-17T09:47:29.194Z,25.61
2023-05-17T09:49:58.347Z,25.24
2023-05-17T09:52:25.502Z,25.53
2023-05-17T09:54:57.930Z,25.50
2023-05-17T09:57:29.463Z,25.46
2023-05-17T09:59:58.223Z,25.08
2023-05-17T10:02:31.299Z,25.33
2023-05-17T10:04:58.659Z,25.29
2023-05-17T10:07:27.158Z,25.24
2023-05-17T10:09:56.163Z,25.26
2023-05-17T10:12:25.047Z,25.24
2023-05-17T10:14:56.086Z,25.30
2023-05-17T10:17:24.069Z,25.24
2023-05-17T10:19:51.860Z,25.25
2023-05-17T10:22:23.730Z,25.33
2023-05-17T10:24:51.984Z,25.37
2023-05-17T10:27:20.993Z,25.42
2023-05-17T10:29:50.454Z,25.37
2023-05-17T10:32:23.336Z,25.53
2023-05-17T10:35:01.541Z,25.43
2023-05-17T10:37:37.286Z,25.50
2023-05-17T10:40:05.051Z,25.49
2023-05-17T10:42:32.746Z,25.49
2023-05-17T10:45:01.907Z,25.38
2023-05-17T10:47:33.240Z,25.53
2023-05-17T10:50:00.638Z,25.47
2023-05-17T10:52:28.035Z,25.42
2023-05-17T10:54:56.584Z,25.40
2023-05-17T10:57:50.058Z,25.54
2023-05-17T11:00:22.224Z,25.53
2023-05-17T11:02:50.897Z,25.64
2023-05-17T11:05:26.016Z,25.83
2023-05-17T11:08:11.929Z,25.90
2023-05-17T11:10:39.173Z,25.97
2023-05-17T11:13:23.413Z,26.01
2023-05-17T11:16:08.100Z,26.03
2023-05-17T11:18:52.845Z,26.18
2023-05-17T11:21:22.556Z,26.10
2023-05-17T11:23:56.762Z,26.26
2023-05-17T11:26:32.066Z,26.33
2023-05-17T11:29:12.457Z,26.34
2023-05-17T11:31:51.857Z,26.55
2023-05-17T11:34:19.527Z,26.31
2023-05-17T11:36:54.652Z,26.47
2023-05-17T11:39:23.918Z,26.56
2023-05-17T11:41:58.090Z,26.68
2023-05-17T11:44:32.841Z,26.51
2023-05-17T11:47:04.733Z,25.81
2023-05-17T11:49:36.672Z,26.35
2023-05-17T11:52:08.237Z,26.45
2023-05-17T11:54:35.648Z,26.38
2023-05-17T11:57:04.307Z,26.45
2023-05-17T11:59:38.785Z,26.45
2023-05-17T12:02:06.346Z,26.23
2023-05-17T12:04:38.064Z,26.35
2023-05-17T12:07:09.060Z,26.15
2023-05-17T12:09:37.583Z,26.13
2023-05-17T12:12:05.971Z,26.10
2023-05-17T12:14:33.182Z,26.07
2023-05-17T12:17:02.754Z,26.18
2023-05-17T12:19:30.573Z,26.17
2023-05-17T12:22:14.803Z,26.21
2023-05-17T12:24:43.197Z,25.94
2023-05-17T12:27:11.164Z,25.99
2023-05-17T12:29:39.326Z,25.94
2023-05-17T12:32:08.897Z,25.92
2023-05-17T12:34:36.475Z,25.72
2023-05-17T12:37:04.376Z,25.60
2023-05-17T12:39:31.864Z,25.60
2023-05-17T12:41:59.446Z,25.58
2023-05-17T12:44:26.589Z,25.69
2023-05-17T12:46:56.406Z,25.70
2023-05-17T12:49:23.801Z,25.72
2023-05-17T12:51:50.878Z,25.59
2023-05-17T12:54:28.640Z,25.57
2023-05-17T12:56:57.116Z,25.41
2023-05-17T12:59:29.284Z,25.41
2023-05-17T13:01:58.302Z,25.44
2023-05-17T13:04:33.109Z,25.43
2023-05-17T13:07:02.758Z,25.48
2023-05-17T13:09:32.280Z,25.45
2023-05-17T13:12:07.309Z,25.43
2023-05-17T13:14:45.796Z,25.53
2023-05-17T13:17:24.790Z,25.44
2023-05-17T13:19:52.637Z,25.31
2023-05-17T13:22:19.859Z,24.85
2023-05-17T13:24:46.970Z,25.11
2023-05-17T13:27:14.107Z,25.07
2023-05-17T13:29:42.958Z,25.15
2023-05-17T13:32:12.064Z,25.20
2023-05-17T13:34:40.668Z,25.15
2023-05-17T13:37:11.109Z,25.12
2023-05-17T13:39:41.368Z,25.21
2023-05-17T13:42:09.801Z,25.21
2023-05-17T13:44:38.496Z,25.18
2023-05-17T13:47:06.433Z,25.27
2023-05-17T13:49:33.574Z,25.24
2023-05-17T13:52:00.981Z,25.24
2023-05-17T13:54:28.377Z,25.24
2023-05-17T13:56:57.622Z,25.14
2023-05-17T13:59:25.056Z,25.08
2023-05-17T14:01:52.793Z,25.00
2023-05-17T14:04:22.759Z,25.11
2023-05-17T14:06:51.742Z,25.09
2023-05-17T14:09:20.517Z,24.97
2023-05-17T14:11:47.675Z,24.98
2023-05-17T14:14:14.828Z,24.91
2023-05-17T14:16:42.020Z,24.76
2023-05-17T14:19:09.266Z,24.84
2023-05-17T14:21:36.636Z,24.87
2023-05-17T14:24:03.929Z,24.87
2023-05-17T14:26:31.042Z,24.75
2023-05-17T14:28:58.143Z,24.87
2023-05-17T14:31:25.225Z,24.85
2023-05-17T14:33:52.355Z,24.83
2023-05-17T14:36:19.455Z,24.78
2023-05-17T14:38:46.521Z,24.81
2023-05-17T14:41:13.632Z,24.79
2023-05-17T14:43:40.687Z,24.76
2023-05-17T14:46:07.795Z,24.55
2023-05-17T14:48:34.972Z,24.73
2023-05-17T14:51:03.663Z,24.64
2023-05-17T14:53:31.003Z,24.63
2023-05-17T14:55:59.215Z,24.54
2023-05-17T14:58:26.850Z,24.57
2023-05-17T15:01:05.058Z,24.60
2023-05-17T15:03:33.634Z,24.56
2023-05-17T15:06:02.597Z,24.58
2023-05-17T15:08:31.729Z,24.55
2023-05-17T15:10:59.055Z,24.46
2023-05-17T15:13:26.689Z,24.53
2023-05-17T15:15:54.059Z,24.47
2023-05-17T15:18:21.337Z,24.43
2023-05-17T15:20:48.694Z,24.35
2023-05-17T15:23:16.239Z,24.38
2023-05-17T15:25:43.353Z,24.36
2023-05-17T15:28:10.475Z,24.01
2023-05-17T15:30:37.522Z,24.23
2023-05-17T15:33:04.847Z,24.07
2023-05-17T15:35:32.124Z,23.99
2023-05-17T15:37:59.896Z,24.00
2023-05-17T15:40:27.748Z,23.92
2023-05-17T15:42:54.825Z,23.86
2023-05-17T15:45:21.977Z,23.93
2023-05-17T15:47:49.610Z,23.91
2023-05-17T15:50:17.056Z,23.83
2023-05-17T15:52:44.233Z,23.85
2023-05-17T15:55:11.421Z,23.82
2023-05-17T15:57:38.551Z,23.70
2023-05-17T16:00:06.318Z,23.71
2023-05-17T16:02:34.186Z,23.42
2023-05-17T16:05:03.505Z,23.60
2023-05-17T16:07:31.521Z,23.55
2023-05-17T16:09:58.642Z,23.44
2023-05-17T16:12:25.783Z,23.52
2023-05-17T16:14:52.820Z,23.46
2023-05-17T16:17:19.907Z,23.45
2023-05-17T16:19:46.994Z,23.39
2023-05-17T16:22:14.246Z,23.38
2023-05-17T16:24:42.024Z,23.32
2023-05-17T16:27:09.121Z,23.25
2023-05-17T16:29:40.296Z,23.25
2023-05-17T16:32:08.497Z,23.20
2023-05-17T16:34:36.224Z,23.09
2023-05-17T16:37:04.944Z,23.04
2023-05-17T16:39:33.082Z,23.08
2023-05-17T16:42:00.263Z,22.95
2023-05-17T16:44:27.371Z,22.99
2023-05-17T16:46:54.434Z,22.99
2023-05-17T16:49:21.523Z,22.91
2023-05-17T16:51:50.668Z,22.86
2023-05-17T16:54:18.173Z,22.82
2023-05-17T16:56:45.317Z,22.77
2023-05-17T16:59:12.365Z,22.60
2023-05-17T17:01:39.478Z,22.64
2023-05-17T17:04:06.599Z,22.61
2023-05-17T17:06:34.051Z,22.48
2023-05-17T17:09:01.861Z,22.47
2023-05-17T17:11:28.988Z,22.42
2023-05-17T17:13:56.030Z,22.33
2023-05-17T17:16:23.183Z,22.29
2023-05-17T17:18:50.357Z,22.23
2023-05-17T17:21:17.692Z,22.08
2023-05-17T17:23:44.956Z,22.11
2023-05-17T17:26:12.132Z,22.05
2023-05-17T17:28:39.355Z,21.67
2023-05-17T17:31:06.834Z,21.83
2023-05-17T17:33:34.610Z,21.81
2023-05-17T17:36:02.873Z,21.82
2023-05-17T17:38:29.953Z,21.72
2023-05-17T17:40:57.115Z,21.68
2023-05-17T17:43:24.163Z,21.35
2023-05-17T17:45:51.190Z,21.62
2023-05-17T17:48:18.396Z,21.56
2023-05-17T17:50:45.475Z,21.52
2023-05-17T17:53:12.623Z,21.47
2023-05-17T17:55:39.676Z,21.21
2023-05-17T17:58:07.189Z,21.32
2023-05-17T18:00:34.261Z,21.15
2023-05-17T18:03:01.730Z,21.25
2023-05-17T18:05:28.943Z,21.19
2023-05-17T18:07:56.094Z,21.16
2023-05-17T18:10:23.251Z,21.11
2023-05-17T18:12:51.738Z,21.10
2023-05-17T18:15:19.199Z,21.07
2023-05-17T18:17:46.320Z,21.02
2023-05-17T18:20:13.437Z,20.98
2023-05-17T18:22:40.509Z,20.89
2023-05-17T18:25:07.864Z,20.89
2023-05-17T18:27:35.526Z,20.68
2023-05-17T18:30:03.816Z,20.70
2023-05-17T18:32:33.562Z,20.73
2023-05-17T18:35:00.807Z,20.68
2023-05-17T18:37:27.847Z,20.63
2023-05-17T18:39:55.376Z,20.57
2023-05-17T18:42:25.048Z,20.52
2023-05-17T18:44:52.227Z,20.31
2023-05-17T18:47:19.470Z,20.40
2023-05-17T18:49:47.174Z,20.36
2023-05-17T18:52:14.244Z,20.33
2023-05-17T18:54:41.372Z,20.31
2023-05-17T18:57:11.459Z,20.25
2023-05-17T18:59:38.690Z,20.12
2023-05-17T19:02:06.582Z,20.14
2023-05-17T19:04:33.765Z,20.13
2023-05-17T19:07:00.961Z,20.09
2023-05-17T19:09:28.082Z,20.00
2023-05-17T19:11:56.330Z,20.03
2023-05-17T19:14:23.417Z,19.94
2023-05-17T19:16:51.778Z,19.99
2023-05-17T19:19:18.908Z,19.94
2023-05-17T19:21:46.020Z,19.81
2023-05-17T19:24:13.134Z,19.87
2023-05-17T19:26:40.436Z,19.81
2023-05-17T19:29:07.646Z,19.70
2023-05-17T19:31:34.775Z,19.75
2023-05-17T19:34:02.059Z,19.48
2023-05-17T19:36:29.113Z,19.70
2023-05-17T19:38:56.215Z,19.64
2023-05-17T19:41:23.510Z,19.61
2023-05-17T19:43:50.660Z,19.55
2023-05-17T19:46:17.694Z,19.53
2023-05-17T19:48:44.910Z,19.41
2023-05-17T19:51:12.095Z,19.48
2023-05-17T19:53:51.790Z,19.33
2023-05-17T19:56:20.111Z,19.42
2023-05-17T19:58:47.261Z,19.54
2023-05-17T20:01:14.420Z,19.40
2023-05-17T20:03:41.737Z,19.25
2023-05-17T20:06:14.464Z,19.32
2023-05-17T20:08:42.086Z,19.02
2023-05-17T20:11:09.410Z,19.16
2023-05-17T20:13:40.609Z,19.15
2023-05-17T20:16:12.793Z,19.11
2023-05-17T20:18:44.270Z,19.22
2023-05-17T20:21:15.407Z,19.24
2023-05-17T20:23:42.699Z,19.20
2023-05-17T20:26:16.416Z,19.11
2023-05-17T20:28:44.780Z,19.15
2023-05-17T20:31:12.244Z,19.15
2023-05-17T20:33:39.279Z,18.79
2023-05-17T20:36:06.494Z,19.10
2023-05-17T20:38:33.657Z,19.06
2023-05-17T20:41:00.850Z,19.04
2023-05-17T20:43:29.120Z,18.99
2023-05-17T20:45:56.676Z,18.96
2023-05-17T20:48:24.043Z,18.67
2023-05-17T20:50:51.405Z,18.86
2023-05-17T20:53:18.613Z,18.73
2023-05-17T20:55:45.829Z,18.72
2023-05-17T20:58:13.053Z,18.59
2023-05-17T21:00:40.253Z,18.62
2023-05-17T21:03:09.508Z,18.65
2023-05-17T21:05:38.651Z,18.64
2023-05-17T21:08:07.516Z,18.63
2023-05-17T21:10:36.252Z,18.61
2023-05-17T21:13:03.589Z,18.54
2023-05-17T21:15:30.991Z,18.50
2023-05-17T21:17:58.354Z,18.50
2023-05-17T21:20:25.642Z,18.49
2023-05-17T21:22:52.955Z,18.45
2023-05-17T21:25:20.011Z,18.37
2023-05-17T21:27:47.652Z,18.40
2023-05-17T21:30:15.094Z,18.36
2023-05-17T21:32:42.365Z,18.36
2023-05-17T21:35:09.919Z,18.29
2023-05-17T21:37:40.129Z,18.29
2023-05-17T21:40:08.422Z,18.02
2023-05-17T21:42:36.156Z,18.22
2023-05-17T21:45:03.444Z,18.18
2023-05-17T21:47:32.308Z,18.14
2023-05-17T21:49:59.742Z,18.12
2023-05-17T21:52:26.877Z,18.09
2023-05-17T21:54:53.909Z,18.08
2023-05-17T21:57:21.348Z,18.00
2023-05-17T21:59:49.577Z,18.00
2023-05-17T22:02:16.974Z,17.91
2023-05-17T22:04:44.268Z,17.81
2023-05-17T22:07:11.855Z,17.77
2023-05-17T22:09:38.932Z,17.76
2023-05-17T22:12:08.569Z,17.72
2023-05-17T22:14:36.573Z,17.67
2023-05-17T22:17:08.594Z,17.41
2023-05-17T22:19:40.993Z,17.56
2023-05-17T22:22:09.538Z,17.54
2023-05-17T22:24:37.126Z,17.45
2023-05-17T22:27:04.445Z,17.34
2023-05-17T22:29:31.715Z,17.46
2023-05-17T22:31:58.905Z,17.42
2023-05-17T22:34:25.996Z,17.38
2023-05-17T22:36:53.023Z,17.35
2023-05-17T22:39:20.055Z,17.25
2023-05-17T22:41:47.131Z,17.27
2023-05-17T22:44:14.211Z,17.23
2023-05-17T22:46:42.283Z,17.27
2023-05-17T22:49:09.874Z,17.26
2023-05-17T22:51:37.018Z,17.20
2023-05-17T22:54:04.220Z,17.18
2023-05-17T22:56:31.515Z,17.04
2023-05-17T22:58:59.149Z,17.10
2023-05-17T23:01:26.367Z,16.92
2023-05-17T23:03:53.709Z,17.10
2023-05-17T23:06:22.278Z,16.75
2023-05-17T23:08:49.909Z,17.07
2023-05-17T23:11:18.147Z,17.07
2023-05-17T23:13:45.241Z,16.90
2023-05-17T23:16:14.223Z,16.91
2023-05-17T23:18:41.505Z,16.92
2023-05-17T23:21:09.625Z,16.87
2023-05-17T23:23:38.153Z,16.87
2023-05-17T23:26:06.111Z,16.81
2023-05-17T23:28:33.362Z,16.83
2023-05-17T23:31:02.251Z,16.69
2023-05-17T23:33:32.307Z,16.80
2023-05-17T23:35:59.325Z,16.78
2023-05-17T23:38:26.669Z,16.63
2023-05-17T23:40:54.528Z,16.71
2023-05-17T23:43:21.607Z,16.68
2023-05-17T23:45:48.832Z,16.65
2023-05-17T23:48:16.306Z,16.61
2023-05-17T23:50:43.402Z,16.24
2023-05-17T23:53:10.608Z,16.49
2023-05-17T23:55:38.716Z,16.33
2023-05-17T23:58:06.079Z,16.35
